• Join FlightAware (Why Join?)
  • Login
  • US Flag 
06:33AM EDT


 

Airport Tracker/Info


-or-


 

Live Flight TrackerFlight Track Log ✈ SWA1866 ✈ 01-May-2013 ✈ KSJC - KSNA

Flight Track Log - Related Links

Times and Time Zones

All times are in EDT time to prevent confusion due to time zone crossing. See the SWA1866 flight status page for this flight to view local times or setup timezone preferences in your user account.

Time Position Orientation Groundspeed Altitude Reporting Facility
EDT Latitude Longitude Course Direction KTS MPH feet Rate Location/Type
10:52AM 37.3833 -121.9500 322° Northwest 147 169 1,800  Level Northern Cal TRACON
10:53AM 37.4167 -121.9833 322° Northwest 189 217 4,000 1,680 Climbing Northern Cal TRACON
10:54AM 37.4333 -121.9167 73° East 215 247 5,100 540 Climbing Northern Cal TRACON
10:55AM 37.4000 -121.8667 130° Southeast 214 246 5,100 1,080 Level Northern Cal TRACON
10:56AM 37.3667 -121.8167 130° Southeast 229 264 7,200 2,460 Climbing Northern Cal TRACON
10:57AM 37.3000 -121.7500 141° Southeast 295 339 10,100 3,060 Climbing Northern Cal TRACON
10:58AM 37.2439 -121.6919 141° Southeast 301 346 13,400 2,700 Climbing Oakland Center
10:59AM 37.1719 -121.6108 138° Southeast 344 396 15,600 2,700 Climbing Oakland Center
11:00AM 37.0875 -121.5128 137° Southeast 386 444 18,900 3,240 Climbing Oakland Center
11:01AM 37.0042 -121.4222 139° Southeast 395 455 22,300 2,940 Climbing Oakland Center
11:02AM 36.9217 -121.3314 139° Southeast 396 456 25,000 2,220 Climbing Oakland Center
11:03AM 36.8328 -121.2364 139° Southeast 417 480 26,900 1,920 Climbing Oakland Center
11:04AM 36.7206 -121.1203 140° Southeast 446 513 29,000 1,800 Climbing Oakland Center
11:05AM 36.6236 -121.0131 138° Southeast 462 532 30,700 1,800 Climbing Oakland Center
11:06AM 36.5233 -120.9064 139° Southeast 474 545 32,700 2,220 Climbing Oakland Center
11:07AM 36.4289 -120.7992 138° Southeast 458 527 35,300 1,860 Climbing Oakland Center
11:08AM 36.3322 -120.6972 140° Southeast 456 525 36,600 1,140 Climbing Oakland Center
11:09AM 36.2339 -120.5936 140° Southeast 463 533 37,700 1,140 Climbing Oakland Center
11:10AM 36.1350 -120.4886 139° Southeast 465 535 39,000 1,140 Climbing Oakland Center
11:11AM 36.0353 -120.3850 140° Southeast 468 539 40,100 960 Climbing Oakland Center
11:12AM 35.9381 -120.2822 139° Southeast 461 531 41,000 420 Climbing Oakland Center
11:13AM 35.8406 -120.1806 140° Southeast 458 527 41,000  Level Oakland Center
11:14AM 35.7439 -120.0792 140° Southeast 455 524 41,000  Level Oakland Center
11:15AM 35.6261 -119.9575 140° Southeast 456 525 41,000  Level Oakland Center
11:16AM 35.5214 -119.8683 145° Southeast 455 524 41,000  Level Oakland Center
11:17AM 35.4169 -119.7794 145° Southeast 454 522 41,000 -120 Level Oakland Center
11:18AM 35.3133 -119.6903 145° Southeast 453 521 40,800 -300 Descending Oakland Center
11:19AM 35.2928 -119.6736 147° Southeast 455 524 40,600 -1,020 Descending Los Angeles Center
11:20AM 35.1672 -119.5656 145° Southeast 457 526 39,400 -1,320 Descending Los Angeles Center
11:21AM 35.0619 -119.4753 145° Southeast 460 529 37,900 -2,040 Descending Los Angeles Center
11:22AM 34.9569 -119.3864 145° Southeast 460 529 35,300 -1,980 Descending Los Angeles Center
11:23AM 34.8742 -119.3153 145° Southeast 457 526 33,900 -1,200 Descending Los Angeles Center
11:24AM 34.7614 -119.2233 146° Southeast 409 471 32,800 -1,680 Descending Los Angeles Center
11:25AM 34.6692 -119.1450 145° Southeast 402 463 30,400 -2,520 Descending Los Angeles Center
11:26AM 34.5517 -119.0464 145° Southeast 454 522 27,700 -2,760 Descending Los Angeles Center
11:27AM 34.4417 -118.9550 146° Southeast 475 547 24,800 -2,820 Descending Los Angeles Center
11:28AM 34.3328 -118.8714 148° Southeast 459 528 21,900 -2,640 Descending Los Angeles Center
11:29AM 34.2375 -118.8369 163° South 449 517 19,400 -3,000 Descending Los Angeles Center
11:30AM 34.0789 -118.7797 163° South 423 487 15,800 -2,580 Descending Los Angeles Center
11:31AM 33.9728 -118.7400 163° South 385 443 14,100 -840 Descending Los Angeles Center
11:32AM 33.8767 -118.7044 163° South 366 421 14,100  Level Los Angeles Center
11:33AM 33.7839 -118.6719 164° South 363 418 14,100 -1,260 Level Los Angeles Center
11:34AM 33.6669 -118.6314 164° South 371 427 11,600 -1,920 Descending Los Angeles Center
11:35AM 33.5797 -118.5847 156° South 350 403 10,200 -1,140 Descending Los Angeles Center
11:36AM 33.5708 -118.4836 96° East 314 361 9,300 -960 Descending Los Angeles Center
11:37AM 33.5708 -118.3883 90° East 296 341 8,300 -1,080 Descending Los Angeles Center
11:38AM 33.5700 -118.2800 90° East 283 326 7,100 -1,080 Descending Los Angeles Center
11:39AM 33.5697 -118.1936 90° East 272 313 6,100 -1,020 Descending Los Angeles Center
11:40AM 33.5881 -118.1200 73° East 259 298 5,000 -600 Descending Los Angeles Center
11:41AM 33.6233 -118.0653 52° Northeast 220 253 4,900  Descending Los Angeles Center
11:42AM 33.6833 -118.0167 34° Northeast 192 221 5,100 60 Climbing Southern California TRACON
11:43AM 33.7167 -117.9667 51° Northeast 186 214 5,100 -240 Level Southern California TRACON
11:44AM 33.7500 -117.9333 40° Northeast 190 219 4,700 -720 Descending Southern California TRACON
11:45AM 33.8000 -117.8833 40° Northeast 207 238 3,600 -840 Descending Southern California TRACON
11:46AM 33.8333 -117.8500 40° Northeast 212 244 3,100 -300 Descending Southern California TRACON
11:47AM 33.8500 -117.7833 73° East 213 245 3,100 -180 Level Southern California TRACON
11:48AM 33.8000 -117.7833 180° South 205 236 2,800 -600 Descending Southern California TRACON
11:49AM 33.7667 -117.8167 220° Southwest 179 206 2,000 -900 Descending Southern California TRACON
11:51AM 33.7167 -117.8333 195° South 130 150 1,000 -840 Descending Southern California TRACON
11:52AM 33.6833 -117.8667 220° Southwest 132 152 300 -720 Descending Southern California TRACON